Aviation Digital Data Service (ADDS)

Output produced by METARs form (2342 UTC 03 July 2015)
found at http://www.aviationweather.gov/adds/metars/
 
KIPT 032254Z 15005KT 10SM CLR 25/16 A2992 RMK AO2 SLP128 T02500156
KIPT 032154Z 14009KT 10SM CLR 26/15 A2992 RMK AO2 SLP130 T02560150
KIPT 032054Z 22005KT 10SM FEW045 26/14 A2993 RMK AO2 SLP134 T02610144 58013
KIPT 031954Z 00000KT 10SM SCT045 26/14 A2995 RMK AO2 SLP139 T02560139
KIPT 031854Z 10SM FEW042 26/14 A2996 RMK AO2 SLP144 T02560144
KIPT 031754Z 00000KT 10SM FEW045 25/13 A2997 RMK AO2 SLP147 T02500133 10250 20172 58011
KIPT 031654Z 12004KT 10SM FEW060 24/12 A2999 RMK AO2 SLP151 T02390117
KIPT 031554Z 14005KT 10SM CLR 22/09 A3000 RMK AO2 SLP154 T02220094
KIPT 031454Z 14004KT 10SM CLR 21/10 A3000 RMK AO2 SLP158 T02110100 50001
KIPT 031354Z 14003KT 10SM CLR 19/09 A3001 RMK AO2 SLP161 T01940094
KIPT 031254Z 00000KT 10SM SCT060 18/10 A3002 RMK AO2 SLP162 T01830100
KIPT 031154Z 00000KT 10SM SCT045 17/12 A3000 RMK AO2 SLP157 T01670117 10167 20139 53009
KIPT 031054Z 00000KT 10SM CLR 14/12 A2998 RMK AO2 SLP151 T01440117
KIPT 030954Z AUTO 00000KT 10SM SCT049 BKN065 14/11 A2999 RMK AO2 SLP153 T01390111
KIPT 030854Z AUTO 00000KT 10SM BKN046 OVC065 15/12 A2997 RMK AO2 SLP148 T01500122 53006
KIPT 030754Z AUTO 00000KT 10SM FEW050 14/12 A2996 RMK AO2 SLP141 T01440122
KIPT 030654Z AUTO 23004KT 10SM CLR 16/13 A2996 RMK AO2 SLP143 T01560128
KIPT 030554Z AUTO 00000KT 10SM SCT050 16/13 A2996 RMK AO2 SLP142 T01610128 10228 20161 51012
KIPT 030454Z 04004KT 10SM FEW048 SCT075 19/12 A2995 RMK AO2 SLP138 T01940122 402560139
KIPT 030354Z 05004KT 10SM BKN055 20/13 A2994 RMK AO2 SLP134 T02000128
KIPT 030254Z 23003KT 10SM FEW042 BKN085 19/16 A2992 RMK AO2 SLP130 T01890156 51017
KIPT 030154Z 32004KT 10SM BKN050 21/17 A2991 RMK AO2 SLP126 T02060167
KIPT 030054Z 00000KT 10SM CLR 20/17 A2988 RMK AO2 SLP117 T02000167
KIPT 022354Z 00000KT 10SM SCT042 23/17 A2987 RMK AO2 SLP112 T02280167 10256 20228 56004
KIPT 022254Z 20003KT 10SM CLR 24/14 A2987 RMK AO2 SLP114 T02390139
KIPT 022154Z 21004KT 10SM FEW090 24/14 A2988 RMK AO2 SLP114 T02440139
KIPT 022054Z 17003KT 10SM SCT090 24/13 A2988 RMK AO2 SLP116 T02440133 56009
KIPT 021954Z 21003KT 10SM SCT040 24/13 A2989 RMK AO2 SLP118 T02440133
KIPT 021854Z 00000KT 10SM BKN085 25/13 A2990 RMK AO2 SLP122 T02500133
KIPT 021754Z 32003KT 10SM FEW041 FEW080 25/14 A2991 RMK AO2 SLP126 T02500139 10256 20156 55007
KIPT 021654Z 00000KT 10SM SCT030 24/14 A2991 RMK AO2 SLP126 T02390139
KIPT 021554Z 10SM FEW032 23/14 A2992 RMK AO2 SLP130 T02330139
KIPT 021539Z 00000KT 10SM SCT028 23/14 A2993 RMK AO2 T02280139
KIPT 021523Z 00000KT 10SM BKN026 23/15 A2993 RMK AO2 T02330150
KIPT 021454Z VRB04KT 10SM SCT050 22/15 A2993 RMK AO2 SLP133 T02220150 58002
KIPT 021354Z 00000KT 10SM FEW050 19/14 A2995 RMK AO2 SLP138 T01940144 $
KIPT 021254Z 24004KT 10SM FEW005 17/14 A2994 RMK AO2 SLP137 T01670144
KIPT 021217Z 29005KT 4SM BR SCT004 16/14 A2994 RMK AO2 T01610144
KIPT 021154Z 26006KT 3SM BR OVC004 16/14 A2994 RMK AO2 SLP135 T01560144 10156 20139 53012